createdAt,value
2019-02-21T00:02:09.794Z,95.98
2019-02-21T00:04:38.920Z,95.51
2019-02-21T00:07:08.109Z,96.13
2019-02-21T00:09:37.223Z,95.96
2019-02-21T00:12:06.333Z,95.68
2019-02-21T00:14:35.438Z,95.65
2019-02-21T00:17:04.516Z,95.27
2019-02-21T00:19:33.611Z,94.93
2019-02-21T00:22:02.689Z,94.74
2019-02-21T00:24:31.791Z,94.58
2019-02-21T00:27:00.871Z,94.80
2019-02-21T00:29:29.969Z,94.91
2019-02-21T00:31:59.046Z,95.05
2019-02-21T00:34:28.153Z,95.69
2019-02-21T00:36:57.233Z,95.80
2019-02-21T00:39:26.337Z,95.98
2019-02-21T00:41:55.430Z,96.13
2019-02-21T00:44:24.527Z,96.42
2019-02-21T00:46:53.611Z,96.64
2019-02-21T00:49:22.699Z,96.97
2019-02-21T00:51:51.847Z,97.13
2019-02-21T00:54:21.011Z,97.48
2019-02-21T00:56:50.132Z,97.25
2019-02-21T00:59:19.210Z,96.70
2019-02-21T01:01:48.315Z,97.20
2019-02-21T01:04:17.401Z,97.49
2019-02-21T01:06:46.520Z,97.78
2019-02-21T01:09:15.612Z,97.80
2019-02-21T01:11:44.716Z,98.33
2019-02-21T01:14:13.803Z,98.02
2019-02-21T01:16:42.904Z,98.39
2019-02-21T01:19:11.992Z,97.97
2019-02-21T01:21:41.096Z,97.52
2019-02-21T01:24:10.378Z,97.12
2019-02-21T01:26:39.483Z,95.62
2019-02-21T01:29:08.563Z,94.62
2019-02-21T01:31:37.673Z,94.76
2019-02-21T01:34:06.759Z,95.57
2019-02-21T01:36:35.864Z,96.00
2019-02-21T01:39:06.428Z,95.98
2019-02-21T01:41:35.545Z,96.17
2019-02-21T01:44:04.831Z,96.85
2019-02-21T01:46:33.878Z,96.95
2019-02-21T01:49:02.969Z,96.91
2019-02-21T01:51:32.078Z,96.80
2019-02-21T01:54:01.194Z,96.54
2019-02-21T01:56:30.270Z,98.57
2019-02-21T01:58:59.400Z,97.92
2019-02-21T02:01:28.465Z,96.02
2019-02-21T02:03:57.570Z,96.75
2019-02-21T02:06:26.656Z,97.63
2019-02-21T02:08:55.771Z,98.38
2019-02-21T02:11:24.860Z,98.40
2019-02-21T02:14:12.985Z,98.31
2019-02-21T02:16:42.070Z,97.89
2019-02-21T02:19:11.179Z,97.33
2019-02-21T02:21:40.269Z,97.89
2019-02-21T02:24:09.383Z,98.44
2019-02-21T02:26:38.463Z,98.65
2019-02-21T02:29:07.578Z,99.80
2019-02-21T02:31:36.655Z,100.00
2019-02-21T02:34:05.777Z,100.00
2019-02-21T02:36:34.858Z,99.81
2019-02-21T02:39:04.970Z,99.54
2019-02-21T02:41:34.060Z,99.36
2019-02-21T02:44:03.162Z,99.55
2019-02-21T02:46:32.348Z,100.00
2019-02-21T02:49:01.456Z,100.00
2019-02-21T02:51:30.567Z,100.00
2019-02-21T02:53:59.695Z,100.00
2019-02-21T02:56:28.790Z,100.00
2019-02-21T02:58:57.885Z,100.00
2019-02-21T03:01:34.856Z,100.00
2019-02-21T03:03:57.849Z,100.00
2019-02-21T03:06:26.947Z,100.00
2019-02-21T03:08:56.033Z,100.00
2019-02-21T03:11:25.141Z,99.73
2019-02-21T03:13:54.254Z,99.33
2019-02-21T03:16:23.345Z,99.30
2019-02-21T03:18:52.423Z,99.58
2019-02-21T03:21:21.531Z,99.77
2019-02-21T03:23:50.620Z,100.00
2019-02-21T03:26:19.730Z,100.00
2019-02-21T03:28:48.811Z,99.95
2019-02-21T03:31:17.919Z,99.67
2019-02-21T03:33:47.006Z,98.77
2019-02-21T03:36:16.120Z,97.90
2019-02-21T03:38:45.206Z,97.52
2019-02-21T03:41:14.306Z,97.25
2019-02-21T03:43:43.394Z,97.35
2019-02-21T03:46:12.500Z,97.69
2019-02-21T03:48:41.580Z,97.56
2019-02-21T03:51:10.697Z,97.53
2019-02-21T03:53:39.813Z,97.64
2019-02-21T03:56:08.917Z,97.41
2019-02-21T03:58:38.009Z,97.63
2019-02-21T04:01:07.108Z,97.92
2019-02-21T04:03:36.196Z,97.98
2019-02-21T04:06:05.285Z,98.78
2019-02-21T04:08:34.436Z,99.46
2019-02-21T04:11:03.479Z,99.95
2019-02-21T04:13:32.587Z,100.00
2019-02-21T04:16:01.754Z,100.00
2019-02-21T04:18:30.865Z,100.00
2019-02-21T04:20:59.955Z,99.80
2019-02-21T04:23:29.059Z,100.00
2019-02-21T04:25:58.144Z,99.81
2019-02-21T04:28:27.263Z,100.00
2019-02-21T04:30:56.346Z,100.00
2019-02-21T04:33:25.470Z,100.00
2019-02-21T04:35:54.563Z,100.00
2019-02-21T04:38:23.675Z,100.00
2019-02-21T04:40:52.763Z,100.00
2019-02-21T04:43:21.870Z,100.00
2019-02-21T04:45:50.959Z,100.00
2019-02-21T04:48:20.080Z,100.00
2019-02-21T04:50:49.177Z,100.00
2019-02-21T04:53:18.324Z,100.00
2019-02-21T04:55:47.408Z,100.00
2019-02-21T04:58:16.520Z,100.00
2019-02-21T05:00:45.604Z,100.00
2019-02-21T05:03:14.723Z,100.00
2019-02-21T05:05:43.816Z,100.00
2019-02-21T05:08:12.921Z,100.00
2019-02-21T05:10:42.004Z,100.00
2019-02-21T05:13:11.123Z,100.00
2019-02-21T05:15:40.204Z,100.00
2019-02-21T05:18:09.319Z,100.00
2019-02-21T05:20:38.411Z,100.00
2019-02-21T05:23:07.550Z,100.00
2019-02-21T05:25:36.610Z,100.00
2019-02-21T05:28:23.484Z,100.00
2019-02-21T05:30:55.028Z,100.00
2019-02-21T05:33:53.423Z,100.00
2019-02-21T05:36:39.962Z,100.00
2019-02-21T05:39:16.860Z,100.00
2019-02-21T05:41:51.576Z,100.00
2019-02-21T05:44:38.644Z,100.00
2019-02-21T05:47:35.564Z,100.00
2019-02-21T05:50:12.362Z,100.00
2019-02-21T05:52:51.449Z,100.00
2019-02-21T05:55:26.226Z,100.00
2019-02-21T05:58:26.334Z,100.00
2019-02-21T06:01:01.534Z,100.00
2019-02-21T06:03:37.498Z,100.00
2019-02-21T06:06:24.042Z,100.00
2019-02-21T06:09:15.234Z,100.00
2019-02-21T06:12:09.282Z,100.00
2019-02-21T06:15:00.315Z,100.00
2019-02-21T06:17:49.767Z,100.00
2019-02-21T06:20:44.360Z,100.00
2019-02-21T06:23:39.427Z,100.00
2019-02-21T06:26:13.604Z,100.00
2019-02-21T06:28:55.937Z,100.00
2019-02-21T06:31:25.049Z,100.00
2019-02-21T06:33:54.142Z,100.00
2019-02-21T06:36:23.259Z,100.00
2019-02-21T06:38:52.412Z,99.35
2019-02-21T06:41:21.532Z,99.44
2019-02-21T06:43:52.608Z,99.77
2019-02-21T06:46:21.450Z,99.77
2019-02-21T06:48:51.645Z,99.97
2019-02-21T06:51:20.798Z,100.00
2019-02-21T06:53:49.929Z,100.00
2019-02-21T06:56:19.021Z,99.73
2019-02-21T06:58:48.133Z,99.45
2019-02-21T07:01:26.784Z,98.42
2019-02-21T07:03:48.067Z,97.93
2019-02-21T07:06:19.104Z,98.14
2019-02-21T07:08:47.955Z,97.88
2019-02-21T07:11:17.037Z,97.32
2019-02-21T07:13:46.145Z,96.65
2019-02-21T07:16:15.228Z,95.72
2019-02-21T07:18:44.395Z,95.63
2019-02-21T07:21:13.477Z,95.45
2019-02-21T07:23:43.721Z,96.03
2019-02-21T07:26:15.558Z,95.96
2019-02-21T07:28:44.703Z,95.56
2019-02-21T07:31:13.798Z,94.65
2019-02-21T07:33:42.911Z,92.66
2019-02-21T07:36:11.998Z,92.28
2019-02-21T07:38:41.109Z,92.34
2019-02-21T07:41:10.264Z,92.05
2019-02-21T07:43:39.480Z,92.04
2019-02-21T07:46:08.570Z,91.59
2019-02-21T07:48:37.681Z,91.85
2019-02-21T07:51:06.772Z,92.68
2019-02-21T07:53:35.913Z,93.92
2019-02-21T07:56:05.008Z,94.29
2019-02-21T07:58:34.079Z,93.77
2019-02-21T08:01:03.179Z,93.09
2019-02-21T08:03:43.785Z,92.04
2019-02-21T08:06:03.099Z,92.29
2019-02-21T08:08:32.540Z,92.53
2019-02-21T08:11:01.766Z,91.42
2019-02-21T08:13:30.848Z,90.59
2019-02-21T08:15:59.957Z,90.57
2019-02-21T08:18:29.044Z,90.46
2019-02-21T08:20:58.151Z,89.40
2019-02-21T08:23:27.252Z,88.64
2019-02-21T08:25:56.346Z,88.60
2019-02-21T08:28:25.428Z,88.21
2019-02-21T08:30:54.533Z,88.42
2019-02-21T08:33:30.471Z,88.16
2019-02-21T08:35:59.581Z,88.33
2019-02-21T08:38:28.670Z,87.95
2019-02-21T08:40:57.764Z,88.69
2019-02-21T08:43:26.922Z,90.78
2019-02-21T08:45:57.551Z,90.41
2019-02-21T08:48:26.802Z,89.70
2019-02-21T08:50:55.948Z,90.14
2019-02-21T08:53:27.879Z,89.20
2019-02-21T08:55:56.129Z,89.30
2019-02-21T08:58:25.208Z,88.92
2019-02-21T09:00:54.675Z,89.53
2019-02-21T09:03:23.777Z,89.68
2019-02-21T09:05:52.884Z,89.79
2019-02-21T09:08:32.722Z,90.46
2019-02-21T09:10:52.806Z,90.55
2019-02-21T09:13:23.830Z,90.35
2019-02-21T09:15:52.696Z,90.42
2019-02-21T09:18:21.802Z,90.06
2019-02-21T09:20:50.892Z,89.88
2019-02-21T09:23:19.995Z,90.05
2019-02-21T09:25:49.720Z,89.63
2019-02-21T09:28:18.906Z,89.81
2019-02-21T09:30:47.946Z,88.98
2019-02-21T09:33:18.984Z,88.86
2019-02-21T09:35:47.868Z,88.75
2019-02-21T09:38:16.975Z,88.22
2019-02-21T09:40:46.064Z,87.21
2019-02-21T09:43:15.171Z,85.23
2019-02-21T09:45:44.266Z,83.40
2019-02-21T09:48:13.366Z,78.79
2019-02-21T09:50:42.465Z,72.26
2019-02-21T09:53:11.625Z,70.00
2019-02-21T09:55:40.707Z,65.49
2019-02-21T09:58:09.821Z,65.47
2019-02-21T10:00:38.909Z,65.66
2019-02-21T10:03:08.019Z,67.66
2019-02-21T10:05:37.109Z,69.26
2019-02-21T10:08:06.703Z,69.38
2019-02-21T10:10:35.795Z,66.18
2019-02-21T10:13:04.914Z,58.60
2019-02-21T10:15:34.013Z,59.35
2019-02-21T10:18:03.146Z,58.14
2019-02-21T10:20:32.218Z,58.27
2019-02-21T10:23:01.313Z,62.15
2019-02-21T10:25:30.554Z,66.40
2019-02-21T10:27:59.650Z,66.40
2019-02-21T10:30:28.841Z,68.32
2019-02-21T10:32:57.933Z,69.71
2019-02-21T10:35:27.043Z,71.04
2019-02-21T10:37:56.134Z,71.21
2019-02-21T10:40:25.645Z,71.24
2019-02-21T10:42:54.738Z,70.21
2019-02-21T10:45:23.991Z,66.76
2019-02-21T10:47:53.078Z,63.35
2019-02-21T10:50:22.302Z,61.33
2019-02-21T10:52:51.420Z,59.83
2019-02-21T10:55:20.634Z,59.72
2019-02-21T10:57:49.731Z,64.73
2019-02-21T11:00:23.916Z,67.79
2019-02-21T11:02:53.009Z,63.91
2019-02-21T11:05:22.135Z,61.64
2019-02-21T11:07:51.221Z,58.24
2019-02-21T11:10:22.848Z,58.42
2019-02-21T11:12:51.947Z,62.38
2019-02-21T11:15:21.696Z,65.14
2019-02-21T11:17:50.791Z,69.50
2019-02-21T11:20:19.911Z,70.29
2019-02-21T11:22:49.033Z,67.73
2019-02-21T11:25:18.147Z,66.73
2019-02-21T11:27:47.238Z,66.98
2019-02-21T11:30:17.386Z,67.28
2019-02-21T11:32:46.473Z,67.59
2019-02-21T11:35:15.767Z,64.41
2019-02-21T11:37:46.991Z,67.15
2019-02-21T11:40:16.049Z,69.01
2019-02-21T11:42:45.197Z,71.05
2019-02-21T11:45:15.318Z,72.50
2019-02-21T11:47:44.466Z,72.97
2019-02-21T11:50:15.130Z,71.41
2019-02-21T11:52:44.242Z,69.62
2019-02-21T11:55:15.854Z,67.59
2019-02-21T11:57:45.038Z,60.96
2019-02-21T12:00:19.484Z,60.49
2019-02-21T12:02:48.600Z,63.31
2019-02-21T12:05:27.881Z,63.89
2019-02-21T12:07:48.552Z,63.69
2019-02-21T12:10:17.684Z,61.93
2019-02-21T12:12:46.768Z,58.42
2019-02-21T12:15:15.867Z,58.40
2019-02-21T12:17:44.982Z,62.37
2019-02-21T12:20:14.442Z,64.06
2019-02-21T12:22:43.566Z,66.02
2019-02-21T12:25:13.886Z,69.75
2019-02-21T12:27:42.984Z,70.72
2019-02-21T12:30:14.181Z,72.23
2019-02-21T12:32:43.298Z,71.76
2019-02-21T12:35:12.398Z,67.05
2019-02-21T12:37:41.513Z,54.75
2019-02-21T12:40:12.343Z,44.10
2019-02-21T12:42:41.451Z,44.32
2019-02-21T12:45:12.578Z,46.70
2019-02-21T12:47:49.376Z,43.05
2019-02-21T12:50:12.554Z,43.66
2019-02-21T12:52:41.657Z,55.24
2019-02-21T12:55:10.866Z,55.24
2019-02-21T12:57:39.935Z,47.63
2019-02-21T13:00:12.416Z,45.30
2019-02-21T13:02:41.502Z,42.11
2019-02-21T13:05:10.619Z,40.30
2019-02-21T13:07:39.712Z,39.01
2019-02-21T13:10:11.285Z,38.25
2019-02-21T13:12:40.372Z,44.18
2019-02-21T13:15:10.888Z,47.52
2019-02-21T13:17:39.975Z,44.85
2019-02-21T13:20:09.696Z,41.27
2019-02-21T13:22:38.790Z,44.75
2019-02-21T13:25:08.537Z,42.13
2019-02-21T13:27:37.628Z,42.23
2019-02-21T13:30:08.461Z,41.04
2019-02-21T13:32:37.554Z,40.45
2019-02-21T13:35:06.947Z,39.31
2019-02-21T13:37:36.024Z,38.25
2019-02-21T13:40:05.953Z,39.06
2019-02-21T13:42:35.037Z,40.23
2019-02-21T13:45:04.174Z,43.31
2019-02-21T13:47:33.274Z,41.42
2019-02-21T13:50:02.394Z,40.29
2019-02-21T13:52:31.483Z,40.33
2019-02-21T13:55:00.620Z,46.80
2019-02-21T13:57:29.714Z,45.86
2019-02-21T13:59:58.829Z,43.09
2019-02-21T14:02:27.923Z,39.38
2019-02-21T14:04:58.899Z,41.50
2019-02-21T14:07:27.844Z,46.28
2019-02-21T14:09:56.935Z,48.62
2019-02-21T14:12:26.612Z,48.28
2019-02-21T14:14:55.812Z,49.37
2019-02-21T14:17:24.926Z,46.87
2019-02-21T14:19:54.018Z,46.89
2019-02-21T14:22:23.125Z,47.76
2019-02-21T14:24:52.222Z,53.58
2019-02-21T14:27:21.346Z,56.07
2019-02-21T14:29:50.449Z,57.94
2019-02-21T14:32:19.653Z,58.66
2019-02-21T14:34:48.758Z,57.95
2019-02-21T14:37:17.878Z,58.31
2019-02-21T14:39:46.968Z,60.64
2019-02-21T14:42:16.097Z,60.13
2019-02-21T14:44:45.187Z,61.28
2019-02-21T14:47:14.313Z,61.47
2019-02-21T14:49:43.399Z,61.93
2019-02-21T14:52:12.530Z,61.86
2019-02-21T14:54:41.651Z,62.92
2019-02-21T14:57:10.773Z,63.34
2019-02-21T14:59:39.861Z,63.75
2019-02-21T15:02:08.973Z,64.38
2019-02-21T15:04:38.368Z,64.51
2019-02-21T15:07:07.564Z,64.04
2019-02-21T15:09:36.655Z,64.74
2019-02-21T15:12:05.786Z,64.41
2019-02-21T15:14:34.874Z,64.92
2019-02-21T15:17:04.118Z,65.52
2019-02-21T15:19:33.148Z,65.95
2019-02-21T15:22:02.260Z,65.50
2019-02-21T15:24:31.351Z,65.38
2019-02-21T15:27:08.067Z,66.02
2019-02-21T15:29:31.340Z,66.54
2019-02-21T15:32:10.472Z,66.43
2019-02-21T15:34:31.246Z,66.92
2019-02-21T15:37:00.366Z,67.53
2019-02-21T15:39:29.458Z,67.66
2019-02-21T15:41:58.578Z,68.18
2019-02-21T15:44:27.669Z,66.59
2019-02-21T15:46:56.783Z,65.94
2019-02-21T15:49:25.892Z,64.08
2019-02-21T15:51:54.982Z,63.19
2019-02-21T15:54:24.121Z,63.86
2019-02-21T15:56:53.272Z,65.29
2019-02-21T15:59:22.354Z,66.69
2019-02-21T16:01:51.454Z,68.22
2019-02-21T16:04:20.631Z,69.24
2019-02-21T16:06:51.661Z,69.58
2019-02-21T16:09:21.160Z,69.76
2019-02-21T16:11:50.283Z,70.24
2019-02-21T16:14:19.389Z,70.73
2019-02-21T16:16:48.478Z,71.36
2019-02-21T16:19:17.652Z,71.46
2019-02-21T16:21:46.693Z,71.79
2019-02-21T16:24:15.805Z,71.39
2019-02-21T16:26:44.895Z,71.64
2019-02-21T16:29:14.011Z,72.09
2019-02-21T16:31:43.109Z,72.24
2019-02-21T16:34:12.224Z,72.59
2019-02-21T16:36:41.318Z,73.31
2019-02-21T16:39:10.428Z,73.72
2019-02-21T16:41:39.518Z,73.94
2019-02-21T16:44:08.640Z,73.89
2019-02-21T16:46:37.729Z,74.24
2019-02-21T16:49:06.843Z,74.55
2019-02-21T16:51:35.942Z,74.73
2019-02-21T16:54:05.089Z,75.26
2019-02-21T16:56:34.180Z,75.47
2019-02-21T16:59:03.800Z,76.48
2019-02-21T17:01:32.981Z,77.17
2019-02-21T17:04:02.128Z,77.42
2019-02-21T17:06:31.224Z,77.50
2019-02-21T17:09:00.337Z,77.83
2019-02-21T17:11:29.424Z,78.14
2019-02-21T17:13:58.539Z,79.02
2019-02-21T17:16:27.639Z,79.34
2019-02-21T17:18:56.745Z,80.10
2019-02-21T17:21:25.832Z,80.09
2019-02-21T17:23:54.917Z,79.84
2019-02-21T17:26:24.018Z,79.78
2019-02-21T17:28:53.113Z,78.80
2019-02-21T17:31:22.219Z,78.83
2019-02-21T17:33:51.314Z,79.12
2019-02-21T17:36:20.475Z,79.22
2019-02-21T17:38:49.560Z,79.16
2019-02-21T17:41:18.676Z,79.32
2019-02-21T17:43:48.085Z,78.90
2019-02-21T17:46:17.182Z,79.37
2019-02-21T17:48:46.292Z,80.13
2019-02-21T17:51:15.405Z,80.83
2019-02-21T17:53:44.514Z,81.65
2019-02-21T17:56:13.621Z,81.71
2019-02-21T17:58:42.704Z,82.32
2019-02-21T18:01:11.822Z,81.98
2019-02-21T18:03:40.905Z,82.22
2019-02-21T18:06:10.007Z,82.03
2019-02-21T18:08:39.100Z,81.60
2019-02-21T18:11:08.262Z,81.57
2019-02-21T18:13:37.349Z,81.26
2019-02-21T18:16:06.455Z,81.62
2019-02-21T18:18:35.993Z,82.04
2019-02-21T18:21:05.102Z,83.03
2019-02-21T18:23:37.541Z,83.42
2019-02-21T18:26:16.103Z,84.68
2019-02-21T18:28:45.193Z,85.02
2019-02-21T18:31:15.840Z,85.00
2019-02-21T18:33:44.935Z,84.71
2019-02-21T18:36:14.045Z,83.79
2019-02-21T18:38:43.140Z,83.91
2019-02-21T18:41:12.233Z,83.74
2019-02-21T18:43:41.351Z,83.51
2019-02-21T18:46:10.445Z,83.86
2019-02-21T18:48:39.551Z,84.67
2019-02-21T18:51:08.637Z,84.67
2019-02-21T18:53:37.766Z,84.40
2019-02-21T18:56:07.101Z,83.40
2019-02-21T18:58:36.376Z,84.03
2019-02-21T19:01:05.747Z,84.49
2019-02-21T19:03:35.010Z,84.67
2019-02-21T19:06:04.370Z,84.82
2019-02-21T19:08:33.762Z,85.09
2019-02-21T19:11:03.245Z,86.16
2019-02-21T19:13:32.472Z,87.47
2019-02-21T19:16:01.914Z,87.56
2019-02-21T19:18:31.200Z,87.68
2019-02-21T19:21:00.460Z,87.43
2019-02-21T19:23:29.559Z,87.64
2019-02-21T19:25:59.934Z,88.33
2019-02-21T19:28:29.181Z,89.04
2019-02-21T19:31:07.893Z,89.10
2019-02-21T19:33:37.346Z,89.18
2019-02-21T19:36:06.468Z,89.83
2019-02-21T19:38:35.586Z,90.04
2019-02-21T19:41:04.684Z,90.31
2019-02-21T19:43:33.942Z,90.66
2019-02-21T19:46:03.026Z,90.91
2019-02-21T19:48:32.412Z,90.50
2019-02-21T19:51:01.788Z,91.04
2019-02-21T19:53:30.907Z,90.98
2019-02-21T19:56:00.189Z,91.15
2019-02-21T19:58:29.313Z,89.09
2019-02-21T20:00:58.595Z,90.16
2019-02-21T20:03:27.880Z,90.88
2019-02-21T20:05:57.155Z,91.64
2019-02-21T20:08:26.367Z,91.14
2019-02-21T20:10:55.717Z,91.94
2019-02-21T20:13:25.261Z,91.01
2019-02-21T20:15:54.721Z,92.12
2019-02-21T20:18:24.117Z,93.50
2019-02-21T20:20:53.227Z,93.92
2019-02-21T20:23:22.468Z,92.75
2019-02-21T20:25:51.741Z,92.79
2019-02-21T20:28:20.878Z,92.66
2019-02-21T20:30:49.995Z,92.37
2019-02-21T20:33:19.085Z,92.03
2019-02-21T20:35:48.198Z,92.56
2019-02-21T20:38:17.284Z,92.12
2019-02-21T20:40:46.400Z,91.60
2019-02-21T20:43:15.483Z,91.77
2019-02-21T20:45:52.422Z,91.86
2019-02-21T20:48:15.401Z,93.26
2019-02-21T20:50:44.551Z,93.65
2019-02-21T20:53:14.084Z,93.79
2019-02-21T20:55:44.096Z,93.55
2019-02-21T20:58:13.528Z,92.89
2019-02-21T21:00:42.938Z,92.35
2019-02-21T21:03:12.653Z,92.73
2019-02-21T21:05:41.943Z,92.76
2019-02-21T21:08:11.321Z,92.73
2019-02-21T21:10:40.597Z,92.69
2019-02-21T21:13:10.453Z,92.78
2019-02-21T21:15:39.617Z,92.98
2019-02-21T21:18:09.310Z,92.30
2019-02-21T21:20:38.508Z,91.88
2019-02-21T21:23:07.908Z,91.84
2019-02-21T21:25:37.097Z,91.85
2019-02-21T21:28:06.216Z,92.02
2019-02-21T21:30:36.380Z,90.53
2019-02-21T21:33:05.639Z,89.33
2019-02-21T21:35:34.725Z,89.56
2019-02-21T21:38:03.834Z,88.95
2019-02-21T21:40:32.925Z,89.68
2019-02-21T21:43:02.040Z,89.58
2019-02-21T21:45:31.121Z,89.37
2019-02-21T21:48:00.235Z,89.38
2019-02-21T21:50:29.324Z,89.79
2019-02-21T21:52:58.440Z,89.91
2019-02-21T21:55:27.560Z,90.12
2019-02-21T21:57:56.647Z,89.25
2019-02-21T22:00:25.759Z,88.77
2019-02-21T22:02:54.853Z,88.30
2019-02-21T22:05:23.971Z,89.39
2019-02-21T22:07:53.054Z,89.44
2019-02-21T22:10:22.269Z,89.59
2019-02-21T22:12:51.354Z,89.45
2019-02-21T22:15:20.475Z,89.50
2019-02-21T22:17:49.612Z,89.58
2019-02-21T22:20:18.671Z,89.43
2019-02-21T22:22:47.752Z,89.59
2019-02-21T22:25:16.866Z,89.64
2019-02-21T22:27:45.968Z,89.91
2019-02-21T22:30:16.053Z,90.14
2019-02-21T22:32:45.141Z,90.80
2019-02-21T22:35:14.247Z,90.75
2019-02-21T22:37:43.330Z,90.81
2019-02-21T22:40:13.008Z,90.03
2019-02-21T22:42:42.090Z,90.21
2019-02-21T22:45:11.301Z,90.57
2019-02-21T22:47:40.400Z,90.84
2019-02-21T22:50:11.545Z,90.46
2019-02-21T22:52:40.641Z,90.06
2019-02-21T22:55:10.472Z,89.95
2019-02-21T22:57:39.679Z,89.72
2019-02-21T23:01:01.565Z,89.36
2019-02-21T23:04:01.274Z,89.44
2019-02-21T23:06:51.406Z,89.46
2019-02-21T23:09:27.583Z,88.75
2019-02-21T23:11:52.553Z,88.84
2019-02-21T23:14:21.657Z,88.73
2019-02-21T23:16:50.763Z,88.67
2019-02-21T23:19:19.848Z,88.50
2019-02-21T23:21:48.956Z,88.57
2019-02-21T23:24:18.047Z,88.50
2019-02-21T23:26:47.171Z,88.91
2019-02-21T23:29:16.264Z,89.08
2019-02-21T23:31:45.376Z,88.80
2019-02-21T23:34:24.517Z,88.44
2019-02-21T23:36:53.618Z,88.17
2019-02-21T23:39:22.711Z,88.02
2019-02-21T23:41:51.823Z,87.58
2019-02-21T23:44:20.895Z,88.07
2019-02-21T23:46:50.080Z,88.40
2019-02-21T23:49:19.172Z,88.57
2019-02-21T23:51:48.280Z,87.93
2019-02-21T23:54:17.398Z,88.25
2019-02-21T23:56:46.501Z,88.50
2019-02-21T23:59:15.584Z,88.62
